Time;durP1;ratioP1;P1;durP2;ratioP2;P2;SDS_P1;SDS_P2;PMS_P1;PMS_P2;Temp;Humidity;BMP_temperature;BMP_pressure;BME280_temperature;BME280_humidity;BME280_pressure;Samples;Min_cycle;Max_cycle;Signal;HPM_P1;HPM_P2
2022/02/04 00:03:13;;;;;;;13.8;21.3;;;;;;;2.9;68.3;98680;;;;
2022/02/04 00:23:04;;;;;;;20.1;25;;;;;;;2.7;72.1;98700;;;;
2022/02/04 00:32:43;;;;;;;20.1;25;;;;;;;2.4;76.3;98690;;;;
2022/02/04 00:43:41;;;;;;;20.1;25;;;;;;;2.5;76.9;98680;;;;
2022/02/04 00:54:48;;;;;;;14.2;18.1;;;;;;;2.5;79;98650;;;;
2022/02/04 01:26:40;;;;;;;5.9;9.3;;;;;;;2.4;80.9;98600;;;;
2022/02/04 01:36:40;;;;;;;5.9;9.3;;;;;;;2.3;81.3;98570;;;;
2022/02/04 01:46:40;;;;;;;6.1;10.9;;;;;;;2.3;81.1;98540;;;;
2022/02/04 01:56:40;;;;;;;6.1;10.9;;;;;;;2.4;80.7;98520;;;;
2022/02/04 02:07:44;;;;;;;6.1;10.9;;;;;;;2.5;80.3;98520;;;;
2022/02/04 02:39:16;;;;;;;9.6;11;;;;;;;2.6;80.4;98490;;;;
2022/02/04 02:50:11;;;;;;;8.1;12.5;;;;;;;2.6;80.3;98500;;;;
2022/02/04 02:59:48;;;;;;;8.1;12.5;;;;;;;2.5;80.8;98490;;;;
2022/02/04 03:10:40;;;;;;;8.1;12.5;;;;;;;2.6;80.6;98490;;;;
2022/02/04 03:21:43;;;;;;;9.9;14.6;;;;;;;2.6;80.5;98490;;;;
2022/02/04 03:31:44;;;;;;;9.9;14.6;;;;;;;2.6;80.4;98480;;;;
2022/02/04 03:42:40;;;;;;;9.9;14.6;;;;;;;2.6;80.4;98470;;;;
2022/02/04 03:52:40;;;;;;;8.1;10.6;;;;;;;2.6;80.4;98470;;;;
2022/02/04 04:03:40;;;;;;;8.1;10.6;;;;;;;2.6;80.7;98470;;;;
2022/02/04 04:13:40;;;;;;;8.1;10.6;;;;;;;2.4;81.8;98460;;;;
2022/02/04 04:24:40;;;;;;;9.6;13.4;;;;;;;2.6;81.3;98430;;;;
2022/02/04 04:34:40;;;;;;;9.6;13.4;;;;;;;2.5;81.6;98420;;;;
2022/02/04 05:36:43;;;;;;;9.2;12.2;;;;;;;2.4;81.4;98420;;;;
2022/02/04 05:46:49;;;;;;;22.3;26.6;;;;;;;2.2;81;98410;;;;
2022/02/04 05:56:50;;;;;;;22.3;26.6;;;;;;;1.8;80.1;98410;;;;
2022/02/04 06:06:58;;;;;;;22.3;26.6;;;;;;;1.5;80.5;98420;;;;
2022/02/04 06:27:40;;;;;;;23.3;27.6;;;;;;;1.1;83.1;98420;;;;
2022/02/04 06:37:40;;;;;;;23.3;27.6;;;;;;;1.2;82.6;98420;;;;
2022/02/04 06:48:40;;;;;;;26.2;30.3;;;;;;;1.4;82.7;98420;;;;
2022/02/04 06:59:43;;;;;;;26.2;30.3;;;;;;;2;83.6;98430;;;;
2022/02/04 07:09:46;;;;;;;26.2;30.3;;;;;;;2.3;83.2;98430;;;;
2022/02/04 07:20:40;;;;;;;10.9;13.6;;;;;;;2.5;82.8;98420;;;;
2022/02/04 07:31:41;;;;;;;10.9;13.6;;;;;;;2.8;82;98420;;;;
2022/02/04 07:41:40;;;;;;;10.9;13.6;;;;;;;3;81.6;98420;;;;
2022/02/04 07:52:40;;;;;;;8.5;10.9;;;;;;;3.8;81.6;98430;;;;
2022/02/04 08:02:40;;;;;;;8.5;10.9;;;;;;;4.4;78.2;98430;;;;
2022/02/04 08:13:17;;;;;;;8.5;10.9;;;;;;;4.7;74.5;98420;;;;
2022/02/04 08:23:10;;;;;;;13.2;17.2;;;;;;;5.1;73.3;98420;;;;
2022/02/04 08:32:51;;;;;;;13.2;17.2;;;;;;;5.2;71.1;98420;;;;
2022/02/04 08:52:51;;;;;;;6.7;10;;;;;;;5.8;68.4;98440;;;;
2022/02/04 09:02:43;;;;;;;6.7;10;;;;;;;6.2;67.8;98440;;;;
2022/02/04 09:23:40;;;;;;;7.7;9.7;;;;;;;6.6;65.6;98470;;;;
2022/02/04 09:34:40;;;;;;;7.7;9.7;;;;;;;7.2;66.9;98460;;;;
2022/02/04 09:45:40;;;;;;;15.2;20.6;;;;;;;7.6;67.7;98460;;;;
2022/02/04 10:07:05;;;;;;;15.2;20.6;;;;;;;7.9;67.1;98450;;;;
2022/02/04 10:17:41;;;;;;;30.6;35.8;;;;;;;8.1;64.1;98430;;;;
2022/02/04 10:27:41;;;;;;;30.6;35.8;;;;;;;7.9;63.6;98420;;;;
2022/02/04 10:38:45;;;;;;;30.6;35.8;;;;;;;7.9;63.9;98410;;;;
2022/02/04 10:49:06;;;;;;;21.2;25.9;;;;;;;8.1;62.4;98410;;;;
2022/02/04 10:58:58;;;;;;;21.2;25.9;;;;;;;8.2;62.1;98390;;;;
2022/02/04 11:09:51;;;;;;;21.2;25.9;;;;;;;8.6;61.6;98400;;;;
2022/02/04 11:31:04;;;;;;;22.4;29.5;;;;;;;8.4;61.7;98380;;;;
2022/02/04 11:51:04;;;;;;;25.4;32.7;;;;;;;8.1;61.9;98370;;;;
2022/02/04 12:01:40;;;;;;;25.4;32.7;;;;;;;7.8;63;98370;;;;
2022/02/04 12:12:40;;;;;;;25.4;32.7;;;;;;;7.5;64.4;98380;;;;
2022/02/04 12:23:43;;;;;;;24;29;;;;;;;7.3;66;98370;;;;
2022/02/04 12:33:40;;;;;;;24;29;;;;;;;7.1;67.5;98370;;;;
2022/02/04 12:43:40;;;;;;;22.3;28.2;;;;;;;7.1;67.6;98360;;;;
2022/02/04 12:54:43;;;;;;;22.3;28.2;;;;;;;7;66.9;98370;;;;
2022/02/04 13:15:40;;;;;;;25.3;34.6;;;;;;;6.9;66.9;98360;;;;
2022/02/04 13:25:40;;;;;;;25.3;34.6;;;;;;;6.9;66.9;98350;;;;
2022/02/04 13:35:42;;;;;;;25.3;34.6;;;;;;;6.8;66.5;98340;;;;
2022/02/04 13:46:46;;;;;;;32;37.9;;;;;;;6.7;66.8;98340;;;;
2022/02/04 13:57:46;;;;;;;32;37.9;;;;;;;6.6;67.3;98340;;;;
2022/02/04 14:07:43;;;;;;;32;37.9;;;;;;;6.5;67.6;98330;;;;
2022/02/04 14:18:40;;;;;;;72.9;82.5;;;;;;;6.5;67.6;98330;;;;
2022/02/04 14:28:45;;;;;;;72.9;82.5;;;;;;;6.5;68;98330;;;;
2022/02/04 14:50:05;;;;;;;25.9;31;;;;;;;6.1;66.7;98330;;;;
2022/02/04 15:00:49;;;;;;;25.9;31;;;;;;;6;65.8;98330;;;;
2022/02/04 15:10:43;;;;;;;25.9;31;;;;;;;6;66.6;98330;;;;
2022/02/04 15:20:40;;;;;;;8;11.3;;;;;;;5.9;66.8;98340;;;;
2022/02/04 15:30:44;;;;;;;8;11.3;;;;;;;5.8;67;98330;;;;
2022/02/04 15:40:44;;;;;;;8;11.3;;;;;;;5.8;67.9;98340;;;;
2022/02/04 15:50:45;;;;;;;10.4;15.2;;;;;;;5.7;68.2;98340;;;;
2022/02/04 16:02:01;;;;;;;10.4;15.2;;;;;;;5.6;68.5;98340;;;;
2022/02/04 16:12:52;;;;;;;10.4;15.2;;;;;;;5.6;68.3;98340;;;;
2022/02/04 16:23:00;;;;;;;19.3;23.5;;;;;;;5.5;68.7;98330;;;;
2022/02/04 16:32:40;;;;;;;19.3;23.5;;;;;;;5.4;69.3;98330;;;;
2022/02/04 16:42:40;;;;;;;19.3;23.5;;;;;;;5.4;69.6;98310;;;;
2022/02/04 16:53:42;;;;;;;21.1;25.8;;;;;;;5.2;69.5;98320;;;;
2022/02/04 17:03:40;;;;;;;21.1;25.8;;;;;;;5.2;69.5;98310;;;;
2022/02/04 17:14:40;;;;;;;12.7;16.9;;;;;;;5.2;69.4;98300;;;;
2022/02/04 17:24:42;;;;;;;12.7;16.9;;;;;;;5.1;70;98300;;;;
2022/02/04 17:34:41;;;;;;;12.7;16.9;;;;;;;5.1;69.7;98300;;;;
2022/02/04 17:45:41;;;;;;;11.1;13.7;;;;;;;5.1;69.2;98300;;;;
2022/02/04 17:55:46;;;;;;;11.1;13.7;;;;;;;5.1;68.9;98310;;;;
2022/02/04 18:05:55;;;;;;;11.1;13.7;;;;;;;5.1;69.1;98300;;;;
2022/02/04 18:15:42;;;;;;;12.4;15.4;;;;;;;5.1;69;98300;;;;
2022/02/04 18:26:40;;;;;;;12.4;15.4;;;;;;;5.1;68.9;98290;;;;
2022/02/04 18:36:40;;;;;;;12.4;15.4;;;;;;;5.1;68.9;98280;;;;
2022/02/04 18:47:53;;;;;;;14.3;16.9;;;;;;;5.1;68.4;98270;;;;
2022/02/04 18:57:41;;;;;;;14.3;16.9;;;;;;;5.1;68.5;98270;;;;
2022/02/04 19:08:45;;;;;;;14.3;16.9;;;;;;;5.1;68.6;98260;;;;
2022/02/04 19:19:49;;;;;;;12.4;15.8;;;;;;;5.1;68;98260;;;;
2022/02/04 19:30:45;;;;;;;12.4;15.8;;;;;;;5.2;68.3;98250;;;;
2022/02/04 19:40:43;;;;;;;12.4;15.8;;;;;;;5.2;68.2;98230;;;;
2022/02/04 19:51:46;;;;;;;13.5;17.9;;;;;;;5.2;67.8;98230;;;;
2022/02/04 20:23:49;;;;;;;11.6;17.5;;;;;;;5.2;67.6;98210;;;;
2022/02/04 20:32:40;;;;;;;11.6;17.5;;;;;;;5.2;67.7;98200;;;;
2022/02/04 20:42:40;;;;;;;10.7;15.4;;;;;;;5.2;68;98200;;;;
2022/02/04 20:53:41;;;;;;;10.7;15.4;;;;;;;5.2;67.6;98190;;;;
2022/02/04 21:03:41;;;;;;;10.7;15.4;;;;;;;5.3;67.3;98180;;;;
2022/02/04 21:15:02;;;;;;;10.4;14.3;;;;;;;5.4;67.4;98160;;;;
2022/02/04 21:24:40;;;;;;;10.4;14.3;;;;;;;5.4;67.9;98150;;;;
2022/02/04 21:45:42;;;;;;;9;12.4;;;;;;;5.4;67.7;98150;;;;
2022/02/04 21:55:41;;;;;;;9;12.4;;;;;;;5.4;67.3;98140;;;;
2022/02/04 22:05:40;;;;;;;9;12.4;;;;;;;5.5;66.8;98140;;;;
2022/02/04 22:16:09;;;;;;;10.6;14.4;;;;;;;5.4;67.1;98130;;;;
2022/02/04 22:26:41;;;;;;;10.6;14.4;;;;;;;5.4;67.1;98130;;;;
2022/02/04 22:37:08;;;;;;;10.6;14.4;;;;;;;5.4;67.3;98120;;;;
2022/02/04 22:47:01;;;;;;;11.4;13.3;;;;;;;5.5;67.8;98120;;;;
2022/02/04 22:56:57;;;;;;;11.4;13.3;;;;;;;5.6;67.6;98110;;;;
2022/02/04 23:07:41;;;;;;;11.4;13.3;;;;;;;5.7;67.6;98100;;;;
2022/02/04 23:17:48;;;;;;;7.7;11.1;;;;;;;5.6;67.7;98090;;;;
2022/02/04 23:28:58;;;;;;;7.7;11.1;;;;;;;5.7;67.6;98080;;;;
2022/02/04 23:49:57;;;;;;;7.5;12;;;;;;;5.7;67.6;98070;;;;
